Time;durP1;ratioP1;P1;durP2;ratioP2;P2;SDS_P1;SDS_P2;PMS_P1;PMS_P2;Temp;Humidity;BMP_temperature;BMP_pressure;BME280_temperature;BME280_humidity;BME280_pressure;Samples;Min_cycle;Max_cycle;Signal;HPM_P1;HPM_P2
2024/01/05 00:00:46;;;;;;;1.23;0.52;;;;;;;;;;5041758;28;20516;-83
2024/01/05 00:03:12;;;;;;;1.88;1.05;;;;;;;;;;5041477;28;20079;-82
2024/01/05 00:05:44;;;;;;;1.45;0.52;;;;;;;;;;5039569;28;20028;-82
2024/01/05 00:08:11;;;;;;;0.80;0.60;;;;;;;;;;5037156;28;20075;-83
2024/01/05 00:10:37;;;;;;;0.65;0.50;;;;;;;;;;5036821;28;20022;-83
2024/01/05 00:13:03;;;;;;;2.28;0.60;;;;;;;;;;5035367;28;20097;-83
2024/01/05 00:15:29;;;;;;;0.55;0.40;;;;;;;;;;5042888;28;20033;-82
2024/01/05 00:17:55;;;;;;;0.85;0.38;;;;;;;;;;5047333;28;20021;-82
2024/01/05 00:20:21;;;;;;;0.88;0.40;;;;;;;;;;5048152;28;20030;-82
2024/01/05 00:22:47;;;;;;;0.50;0.38;;;;;;;;;;5048270;28;20148;-81
2024/01/05 00:25:15;;;;;;;0.40;0.32;;;;;;;;;;5041126;28;20026;-82
2024/01/05 00:27:41;;;;;;;0.65;0.50;;;;;;;;;;5040471;28;20052;-84
2024/01/05 00:30:08;;;;;;;0.57;0.57;;;;;;;;;;5040488;28;20083;-82
2024/01/05 00:32:34;;;;;;;0.40;0.35;;;;;;;;;;5039651;28;20036;-83
2024/01/05 00:35:00;;;;;;;0.73;0.38;;;;;;;;;;5038964;28;20052;-82
2024/01/05 00:37:27;;;;;;;0.50;0.40;;;;;;;;;;5040264;28;20056;-82
2024/01/05 00:39:53;;;;;;;0.90;0.40;;;;;;;;;;5039733;28;20029;-82
2024/01/05 00:42:19;;;;;;;0.40;0.40;;;;;;;;;;5041027;28;20093;-82
2024/01/05 00:44:45;;;;;;;0.82;0.20;;;;;;;;;;5039997;28;20038;-82
2024/01/05 00:47:11;;;;;;;0.80;0.50;;;;;;;;;;5040435;28;20036;-82
2024/01/05 00:49:38;;;;;;;0.57;0.50;;;;;;;;;;5040953;28;20028;-83
2024/01/05 00:52:04;;;;;;;0.57;0.40;;;;;;;;;;5040572;28;20017;-82
2024/01/05 00:54:30;;;;;;;0.75;0.40;;;;;;;;;;5040379;28;20025;-83
2024/01/05 00:56:56;;;;;;;0.40;0.35;;;;;;;;;;5040071;28;20127;-82
2024/01/05 00:59:22;;;;;;;0.57;0.50;;;;;;;;;;5040742;28;20018;-83
2024/01/05 01:01:49;;;;;;;1.95;0.45;;;;;;;;;;5042116;28;20036;-82
2024/01/05 01:04:15;;;;;;;0.85;0.40;;;;;;;;;;5041688;28;20101;-82
2024/01/05 01:06:41;;;;;;;0.85;0.47;;;;;;;;;;5041976;28;20025;-84
2024/01/05 01:09:07;;;;;;;0.32;0.20;;;;;;;;;;5041345;28;20033;-82
2024/01/05 01:11:33;;;;;;;1.92;0.45;;;;;;;;;;5041276;28;20095;-82
2024/01/05 01:13:59;;;;;;;1.92;0.32;;;;;;;;;;5042650;28;20021;-81
2024/01/05 01:16:25;;;;;;;0.85;0.40;;;;;;;;;;5033184;28;20061;-81
2024/01/05 01:18:52;;;;;;;0.50;0.50;;;;;;;;;;5021417;28;20026;-83
2024/01/05 01:21:18;;;;;;;0.47;0.25;;;;;;;;;;5020271;28;20342;-81
2024/01/05 01:23:44;;;;;;;0.40;0.20;;;;;;;;;;5021215;28;20026;-82
2024/01/05 01:26:10;;;;;;;0.15;0.13;;;;;;;;;;5020878;28;20034;-82
2024/01/05 01:28:36;;;;;;;0.75;0.20;;;;;;;;;;5019380;28;20026;-83
2024/01/05 01:31:02;;;;;;;0.32;0.20;;;;;;;;;;5019963;28;20022;-82
2024/01/05 01:33:28;;;;;;;0.30;0.20;;;;;;;;;;5019322;28;20041;-82
2024/01/05 01:35:54;;;;;;;0.10;0.10;;;;;;;;;;5019644;28;20030;-82
2024/01/05 01:38:21;;;;;;;0.45;0.35;;;;;;;;;;5019605;28;20049;-83
2024/01/05 01:40:52;;;;;;;0.47;0.32;;;;;;;;;;5019557;28;20037;-83
2024/01/05 01:43:19;;;;;;;0.82;0.20;;;;;;;;;;5019943;28;20557;-82
2024/01/05 01:45:46;;;;;;;0.38;0.30;;;;;;;;;;5019580;28;20026;-83
2024/01/05 01:48:12;;;;;;;0.38;0.30;;;;;;;;;;5034010;28;20033;-81
2024/01/05 01:50:38;;;;;;;0.52;0.32;;;;;;;;;;5039763;28;20041;-82
2024/01/05 01:53:04;;;;;;;0.25;0.22;;;;;;;;;;5039223;28;20018;-81
2024/01/05 01:55:30;;;;;;;0.25;0.10;;;;;;;;;;5029924;28;20034;-83
2024/01/05 01:57:56;;;;;;;0.30;0.20;;;;;;;;;;5028768;28;20086;-82
2024/01/05 02:00:23;;;;;;;1.27;0.30;;;;;;;;;;5039490;28;20101;-82
2024/01/05 02:02:53;;;;;;;0.63;0.30;;;;;;;;;;5038624;28;20085;-81
2024/01/05 02:05:19;;;;;;;0.50;0.30;;;;;;;;;;5023900;28;20057;-81
2024/01/05 02:07:45;;;;;;;0.50;0.30;;;;;;;;;;5023032;28;20033;-83
2024/01/05 02:10:11;;;;;;;0.63;0.30;;;;;;;;;;5021181;28;20026;-82
2024/01/05 02:12:37;;;;;;;0.47;0.30;;;;;;;;;;5026474;28;20030;-81
2024/01/05 02:15:05;;;;;;;0.20;0.20;;;;;;;;;;5039941;28;20080;-83
2024/01/05 02:17:32;;;;;;;1.33;0.22;;;;;;;;;;5039159;28;20089;-83
2024/01/05 02:19:58;;;;;;;0.60;0.20;;;;;;;;;;5038734;28;20021;-83
2024/01/05 02:22:28;;;;;;;0.20;0.10;;;;;;;;;;5039118;28;20045;-83
2024/01/05 02:24:54;;;;;;;0.20;0.20;;;;;;;;;;5038125;28;20270;-82
2024/01/05 02:27:20;;;;;;;0.47;0.20;;;;;;;;;;5039221;28;20040;-82
2024/01/05 02:29:46;;;;;;;0.30;0.20;;;;;;;;;;5038721;28;20032;-82
2024/01/05 02:32:12;;;;;;;0.40;0.30;;;;;;;;;;5038921;28;20029;-83
2024/01/05 02:34:38;;;;;;;0.40;0.15;;;;;;;;;;5039117;28;20029;-84
2024/01/05 02:37:04;;;;;;;0.70;0.20;;;;;;;;;;5041575;28;20075;-82
2024/01/05 02:39:31;;;;;;;1.45;0.30;;;;;;;;;;5041483;28;20025;-83
2024/01/05 02:41:57;;;;;;;0.38;0.10;;;;;;;;;;5049099;28;20053;-83
2024/01/05 02:44:23;;;;;;;1.73;0.28;;;;;;;;;;5057756;28;20099;-83
2024/01/05 02:46:49;;;;;;;1.08;0.30;;;;;;;;;;5058716;28;20032;-82
2024/01/05 02:49:15;;;;;;;0.38;0.20;;;;;;;;;;5058913;28;20048;-82
2024/01/05 02:51:41;;;;;;;0.13;0.13;;;;;;;;;;5058360;28;20009;-81
2024/01/05 02:54:07;;;;;;;0.10;0.10;;;;;;;;;;5058985;28;20018;-82
2024/01/05 02:56:34;;;;;;;1.55;0.40;;;;;;;;;;5058915;28;20031;-82
2024/01/05 02:59:00;;;;;;;0.50;0.20;;;;;;;;;;5058738;28;20013;-82
2024/01/05 03:01:26;;;;;;;0.20;0.10;;;;;;;;;;5058606;28;20049;-81
2024/01/05 03:03:52;;;;;;;0.10;0.10;;;;;;;;;;5057750;28;20030;-81
2024/01/05 03:06:19;;;;;;;0.82;0.20;;;;;;;;;;5058235;28;20056;-82
2024/01/05 03:08:45;;;;;;;0.30;0.10;;;;;;;;;;5058141;28;20044;-82
2024/01/05 03:11:11;;;;;;;0.38;0.10;;;;;;;;;;5058268;28;20029;-82
2024/01/05 03:13:37;;;;;;;0.30;0.10;;;;;;;;;;5057929;28;20060;-82
2024/01/05 03:16:04;;;;;;;0.10;0.10;;;;;;;;;;5058195;28;20041;-81
2024/01/05 03:18:30;;;;;;;0.15;0.10;;;;;;;;;;5057812;28;20017;-81
2024/01/05 03:20:56;;;;;;;0.30;0.30;;;;;;;;;;5057255;28;20069;-81
2024/01/05 03:23:22;;;;;;;1.08;0.20;;;;;;;;;;5053104;28;20033;-82
2024/01/05 03:25:50;;;;;;;0.22;0.15;;;;;;;;;;5041707;28;20400;-82
2024/01/05 03:28:16;;;;;;;0.10;0.10;;;;;;;;;;5048070;28;20048;-82
2024/01/05 03:30:42;;;;;;;0.20;0.20;;;;;;;;;;5038575;28;20061;-82
2024/01/05 03:33:09;;;;;;;0.10;0.10;;;;;;;;;;5038709;28;20033;-83
2024/01/05 03:35:36;;;;;;;0.13;0.13;;;;;;;;;;5037626;28;20021;-82
2024/01/05 03:38:02;;;;;;;0.50;0.30;;;;;;;;;;5039994;28;20017;-82
2024/01/05 03:40:28;;;;;;;0.15;0.10;;;;;;;;;;5039971;28;20028;-83
2024/01/05 03:42:55;;;;;;;0.40;0.10;;;;;;;;;;5038577;28;20034;-82
2024/01/05 03:45:21;;;;;;;0.20;0.20;;;;;;;;;;5040711;28;20057;-82
2024/01/05 03:47:47;;;;;;;0.20;0.10;;;;;;;;;;5047638;28;20029;-82
2024/01/05 03:50:13;;;;;;;0.10;0.10;;;;;;;;;;5039240;28;20100;-81
2024/01/05 03:52:39;;;;;;;0.30;0.10;;;;;;;;;;5037524;28;20504;-81
2024/01/05 03:55:05;;;;;;;0.10;0.10;;;;;;;;;;5036824;28;20536;-83
2024/01/05 03:57:31;;;;;;;0.17;0.15;;;;;;;;;;5037341;28;20163;-82
2024/01/05 03:59:57;;;;;;;0.25;0.20;;;;;;;;;;5038190;28;20026;-83
2024/01/05 04:02:23;;;;;;;0.28;0.10;;;;;;;;;;5037230;28;20112;-82
2024/01/05 04:04:49;;;;;;;0.10;0.10;;;;;;;;;;5037672;28;20085;-83
2024/01/05 04:07:16;;;;;;;0.10;0.10;;;;;;;;;;5037885;28;20029;-83
2024/01/05 04:09:42;;;;;;;0.20;0.10;;;;;;;;;;5038117;28;20096;-83
2024/01/05 04:12:09;;;;;;;0.20;0.10;;;;;;;;;;5035886;28;20036;-83
2024/01/05 04:14:35;;;;;;;0.10;0.10;;;;;;;;;;5038404;28;20018;-82
2024/01/05 04:17:01;;;;;;;0.20;0.20;;;;;;;;;;5036090;28;20022;-80
2024/01/05 04:19:29;;;;;;;1.27;0.30;;;;;;;;;;5037683;28;20105;-83
2024/01/05 04:21:55;;;;;;;0.35;0.20;;;;;;;;;;5038453;28;20025;-83
2024/01/05 04:24:22;;;;;;;0.32;0.20;;;;;;;;;;5046887;28;20030;-82
2024/01/05 04:26:48;;;;;;;0.60;0.40;;;;;;;;;;5053615;28;20055;-82
2024/01/05 04:29:14;;;;;;;0.20;0.20;;;;;;;;;;5054680;28;20077;-81
2024/01/05 04:31:40;;;;;;;0.38;0.32;;;;;;;;;;5047164;28;20045;-82
2024/01/05 04:34:06;;;;;;;0.20;0.15;;;;;;;;;;5047848;28;20009;-82
2024/01/05 04:36:32;;;;;;;0.35;0.20;;;;;;;;;;5039060;28;20132;-82
2024/01/05 04:38:58;;;;;;;0.70;0.25;;;;;;;;;;5037368;28;20022;-82
2024/01/05 04:41:25;;;;;;;0.43;0.20;;;;;;;;;;5036824;28;20048;-82
2024/01/05 04:43:52;;;;;;;0.52;0.40;;;;;;;;;;5064352;22;20075;-77
2024/01/05 04:46:18;;;;;;;0.40;0.28;;;;;;;;;;5053582;28;20021;-77
2024/01/05 04:48:45;;;;;;;0.70;0.20;;;;;;;;;;5054443;28;20022;-76
2024/01/05 04:51:11;;;;;;;0.28;0.20;;;;;;;;;;5059975;28;20044;-78
2024/01/05 04:53:37;;;;;;;0.13;0.13;;;;;;;;;;5043243;28;20073;-77
2024/01/05 04:56:03;;;;;;;0.10;0.03;;;;;;;;;;5050888;28;20021;-78
2024/01/05 04:58:29;;;;;;;0.40;0.22;;;;;;;;;;5057773;28;20453;-77
2024/01/05 05:00:55;;;;;;;0.30;0.10;;;;;;;;;;5056036;28;20049;-77
2024/01/05 05:03:23;;;;;;;0.30;0.20;;;;;;;;;;5044743;28;20403;-77
2024/01/05 05:05:49;;;;;;;0.43;0.28;;;;;;;;;;5041821;28;20021;-78
2024/01/05 05:08:15;;;;;;;0.10;0.10;;;;;;;;;;5046255;28;20391;-77
2024/01/05 05:10:42;;;;;;;0.10;0.10;;;;;;;;;;5036732;28;20085;-77
2024/01/05 05:13:09;;;;;;;0.20;0.10;;;;;;;;;;5035311;28;20021;-77
2024/01/05 05:15:35;;;;;;;0.30;0.17;;;;;;;;;;5035324;28;20017;-77
2024/01/05 05:18:01;;;;;;;0.15;0.10;;;;;;;;;;5038614;28;20372;-77
2024/01/05 05:20:27;;;;;;;0.10;0.10;;;;;;;;;;5038585;28;20039;-77
2024/01/05 05:22:53;;;;;;;0.22;0.20;;;;;;;;;;5051144;28;20084;-76
2024/01/05 05:25:19;;;;;;;0.10;0.10;;;;;;;;;;5068127;28;20033;-76
2024/01/05 05:27:45;;;;;;;0.20;0.20;;;;;;;;;;5078296;28;20051;-77
2024/01/05 05:30:11;;;;;;;0.10;0.10;;;;;;;;;;5071047;28;20021;-77
2024/01/05 05:32:37;;;;;;;0.17;0.13;;;;;;;;;;5066252;28;20037;-77
2024/01/05 05:35:04;;;;;;;0.10;0.10;;;;;;;;;;5060789;28;20033;-77
2024/01/05 05:37:30;;;;;;;0.15;0.10;;;;;;;;;;5070993;28;20045;-77
2024/01/05 05:39:56;;;;;;;0.10;0.10;;;;;;;;;;5067019;28;20025;-77
2024/01/05 05:42:22;;;;;;;0.10;0.10;;;;;;;;;;5065101;28;20024;-78
2024/01/05 05:44:48;;;;;;;0.35;0.20;;;;;;;;;;5049237;28;20032;-77
2024/01/05 05:47:14;;;;;;;0.00;0.00;;;;;;;;;;5037228;28;20104;-76
2024/01/05 05:49:40;;;;;;;0.20;0.20;;;;;;;;;;5035095;28;20025;-76
2024/01/05 05:52:08;;;;;;;0.00;0.00;;;;;;;;;;5034514;28;20531;-75
2024/01/05 05:54:34;;;;;;;0.08;0.08;;;;;;;;;;5035089;28;20038;-75
2024/01/05 05:57:00;;;;;;;0.20;0.20;;;;;;;;;;5074468;28;20031;-75
2024/01/05 05:59:27;;;;;;;0.17;0.17;;;;;;;;;;5046878;28;20376;-76
2024/01/05 06:01:53;;;;;;;0.22;0.20;;;;;;;;;;5042086;28;20025;-75
2024/01/05 06:04:19;;;;;;;0.95;0.20;;;;;;;;;;5046124;28;20049;-76
2024/01/05 06:06:46;;;;;;;0.28;0.10;;;;;;;;;;5053020;28;20009;-75
2024/01/05 06:09:14;;;;;;;0.10;0.10;;;;;;;;;;5041223;28;20020;-76
2024/01/05 06:11:40;;;;;;;0.13;0.10;;;;;;;;;;5035709;28;20022;-75
2024/01/05 06:14:06;;;;;;;0.45;0.40;;;;;;;;;;5039137;28;20033;-76
2024/01/05 06:16:32;;;;;;;0.20;0.17;;;;;;;;;;5034247;28;20056;-75
2024/01/05 06:18:58;;;;;;;0.28;0.28;;;;;;;;;;5032511;28;20029;-76
2024/01/05 06:21:25;;;;;;;0.52;0.30;;;;;;;;;;5033954;28;20022;-76
2024/01/05 06:23:51;;;;;;;0.35;0.20;;;;;;;;;;5038130;28;20053;-77
2024/01/05 06:26:17;;;;;;;0.50;0.40;;;;;;;;;;5038070;28;20592;-77
2024/01/05 06:28:43;;;;;;;0.57;0.50;;;;;;;;;;5051904;28;20047;-77
2024/01/05 06:31:09;;;;;;;0.45;0.45;;;;;;;;;;5040446;28;20048;-78
2024/01/05 06:33:35;;;;;;;0.60;0.60;;;;;;;;;;5040016;28;20017;-78
2024/01/05 06:36:01;;;;;;;0.50;0.50;;;;;;;;;;5037070;28;20054;-77
2024/01/05 06:38:27;;;;;;;0.40;0.40;;;;;;;;;;5048529;28;20029;-77
2024/01/05 06:40:55;;;;;;;0.63;0.63;;;;;;;;;;5044884;28;20054;-77
2024/01/05 06:43:21;;;;;;;2.28;0.75;;;;;;;;;;5053201;28;20021;-77
2024/01/05 06:45:47;;;;;;;0.52;0.50;;;;;;;;;;5037305;28;20033;-77
2024/01/05 06:48:13;;;;;;;1.17;0.40;;;;;;;;;;5043289;28;20021;-77
2024/01/05 06:50:39;;;;;;;0.32;0.32;;;;;;;;;;5045071;28;20399;-79
2024/01/05 06:53:06;;;;;;;0.60;0.60;;;;;;;;;;5044315;28;20064;-77
2024/01/05 06:55:32;;;;;;;0.40;0.40;;;;;;;;;;5037842;28;20033;-77
2024/01/05 06:58:01;;;;;;;1.20;0.40;;;;;;;;;;5042843;28;20573;-76
2024/01/05 07:00:28;;;;;;;0.40;0.40;;;;;;;;;;5056047;28;20039;-77
2024/01/05 07:02:55;;;;;;;0.30;0.30;;;;;;;;;;5053488;28;20030;-77
2024/01/05 07:05:21;;;;;;;0.45;0.35;;;;;;;;;;5055771;28;20032;-77
2024/01/05 07:07:47;;;;;;;0.60;0.40;;;;;;;;;;5056248;28;20018;-77
2024/01/05 07:10:13;;;;;;;0.45;0.38;;;;;;;;;;5054942;28;20059;-76
2024/01/05 07:12:39;;;;;;;0.90;0.50;;;;;;;;;;5071526;28;20049;-77
2024/01/05 07:15:06;;;;;;;0.88;0.52;;;;;;;;;;5059679;28;20104;-77
2024/01/05 07:17:32;;;;;;;0.82;0.50;;;;;;;;;;5069324;28;20056;-76
2024/01/05 07:19:58;;;;;;;0.85;0.40;;;;;;;;;;5051198;28;20029;-77
2024/01/05 07:22:25;;;;;;;1.80;0.70;;;;;;;;;;5040892;28;20040;-77
2024/01/05 07:24:51;;;;;;;1.83;0.57;;;;;;;;;;5044185;28;20025;-78
2024/01/05 07:27:17;;;;;;;0.95;0.70;;;;;;;;;;5046593;28;20041;-77
2024/01/05 07:29:43;;;;;;;0.80;0.70;;;;;;;;;;5053937;28;20017;-77
2024/01/05 07:32:09;;;;;;;1.08;0.50;;;;;;;;;;5047391;28;20020;-78
2024/01/05 07:34:35;;;;;;;0.50;0.32;;;;;;;;;;5040645;28;20448;-77
2024/01/05 07:37:01;;;;;;;0.70;0.60;;;;;;;;;;5037372;28;20036;-77
2024/01/05 07:39:27;;;;;;;0.88;0.50;;;;;;;;;;5048646;28;20029;-77
2024/01/05 07:41:54;;;;;;;0.68;0.68;;;;;;;;;;5045794;28;20047;-78
2024/01/05 07:44:20;;;;;;;1.35;0.65;;;;;;;;;;5043663;28;20037;-75
2024/01/05 07:46:47;;;;;;;1.17;0.80;;;;;;;;;;5038637;28;20018;-77
2024/01/05 07:49:13;;;;;;;0.90;0.40;;;;;;;;;;5034122;28;20116;-76
2024/01/05 07:51:39;;;;;;;2.20;1.00;;;;;;;;;;5042269;28;20101;-78
2024/01/05 07:54:05;;;;;;;2.65;0.90;;;;;;;;;;5035830;28;20029;-77
2024/01/05 07:56:36;;;;;;;2.22;1.10;;;;;;;;;;5037091;28;20033;-78
2024/01/05 07:59:02;;;;;;;1.30;1.13;;;;;;;;;;5052182;28;20022;-77
2024/01/05 08:01:28;;;;;;;0.80;0.60;;;;;;;;;;5037390;28;20520;-76
2024/01/05 08:03:54;;;;;;;1.95;1.20;;;;;;;;;;5053741;28;20029;-76
2024/01/05 08:06:20;;;;;;;1.58;0.93;;;;;;;;;;5047000;28;20009;-77
2024/01/05 08:08:47;;;;;;;1.30;0.60;;;;;;;;;;5027391;28;20073;-76
2024/01/05 08:11:19;;;;;;;0.50;0.50;;;;;;;;;;5029945;28;20033;-77
2024/01/05 08:13:46;;;;;;;;;;;;;;;;;;5020854;28;20028;-78
2024/01/05 08:16:12;;;;;;;0.95;0.50;;;;;;;;;;5022297;28;19905;-75
2024/01/05 08:18:38;;;;;;;1.63;0.70;;;;;;;;;;5027678;28;20021;-77
2024/01/05 08:21:05;;;;;;;1.42;0.70;;;;;;;;;;5021112;28;20034;-77
2024/01/05 08:23:32;;;;;;;1.58;1.00;;;;;;;;;;5033538;28;20032;-77
2024/01/05 08:25:58;;;;;;;0.70;0.47;;;;;;;;;;5044303;28;20025;-77
2024/01/05 08:28:25;;;;;;;0.70;0.40;;;;;;;;;;5031886;28;20021;-77
2024/01/05 08:30:51;;;;;;;1.42;0.88;;;;;;;;;;5026444;28;20021;-77
2024/01/05 08:33:17;;;;;;;1.50;0.60;;;;;;;;;;5039044;28;20022;-78
2024/01/05 08:35:43;;;;;;;0.52;0.50;;;;;;;;;;5032320;28;20036;-77
2024/01/05 08:38:09;;;;;;;0.70;0.40;;;;;;;;;;5039932;28;20061;-77
2024/01/05 08:40:35;;;;;;;0.75;0.50;;;;;;;;;;5029966;28;20075;-76
2024/01/05 08:43:02;;;;;;;0.30;0.30;;;;;;;;;;5038913;28;20034;-76
2024/01/05 08:45:29;;;;;;;0.60;0.50;;;;;;;;;;5017700;28;20484;-77
2024/01/05 08:47:56;;;;;;;0.32;0.32;;;;;;;;;;5022506;28;20022;-77
2024/01/05 08:50:22;;;;;;;0.22;0.22;;;;;;;;;;5046339;28;20378;-78
2024/01/05 08:52:48;;;;;;;1.05;0.45;;;;;;;;;;5040129;28;20036;-81
2024/01/05 08:55:15;;;;;;;0.90;0.40;;;;;;;;;;5039793;28;20018;-79
2024/01/05 08:57:41;;;;;;;0.60;0.60;;;;;;;;;;5018067;28;20112;-77
2024/01/05 09:00:11;;;;;;;0.85;0.40;;;;;;;;;;5048998;28;20025;-78
2024/01/05 09:02:38;;;;;;;0.60;0.50;;;;;;;;;;5041202;28;20163;-77
2024/01/05 09:05:04;;;;;;;1.05;0.30;;;;;;;;;;5043647;28;20053;-76
2024/01/05 09:07:33;;;;;;;0.20;0.20;;;;;;;;;;5051966;28;20028;-77
2024/01/05 09:09:59;;;;;;;0.20;0.20;;;;;;;;;;5048910;28;20373;-78
2024/01/05 09:12:26;;;;;;;0.40;0.40;;;;;;;;;;5040600;28;20388;-77
2024/01/05 09:14:52;;;;;;;0.20;0.15;;;;;;;;;;5059511;28;20028;-77
2024/01/05 09:17:18;;;;;;;0.40;0.40;;;;;;;;;;5049018;28;20049;-78
2024/01/05 09:19:44;;;;;;;0.32;0.25;;;;;;;;;;5057729;28;20027;-78
2024/01/05 09:22:10;;;;;;;0.55;0.40;;;;;;;;;;5050169;28;20028;-80
2024/01/05 09:24:37;;;;;;;0.40;0.40;;;;;;;;;;5044604;28;20048;-78
2024/01/05 09:27:03;;;;;;;0.30;0.30;;;;;;;;;;5060790;28;20156;-78
2024/01/05 09:29:32;;;;;;;0.30;0.30;;;;;;;;;;5045883;28;20025;-78
2024/01/05 09:31:59;;;;;;;0.55;0.30;;;;;;;;;;5038917;28;20116;-78
2024/01/05 09:34:25;;;;;;;0.32;0.32;;;;;;;;;;5043454;28;20100;-79
2024/01/05 09:36:51;;;;;;;0.93;0.50;;;;;;;;;;5049227;28;20032;-79
2024/01/05 09:39:18;;;;;;;0.80;0.60;;;;;;;;;;5037018;28;20029;-78
2024/01/05 09:41:48;;;;;;;0.60;0.40;;;;;;;;;;5036686;28;20033;-79
2024/01/05 09:44:16;;;;;;;0.65;0.40;;;;;;;;;;5037969;28;20029;-78
2024/01/05 09:46:42;;;;;;;0.70;0.57;;;;;;;;;;5038597;28;20048;-78
2024/01/05 09:49:09;;;;;;;0.20;0.20;;;;;;;;;;5053847;28;20076;-79
2024/01/05 09:51:35;;;;;;;0.68;0.43;;;;;;;;;;5061804;28;20021;-77
2024/01/05 09:54:01;;;;;;;1.40;0.70;;;;;;;;;;5031590;28;20045;-80
2024/01/05 09:56:28;;;;;;;0.52;0.52;;;;;;;;;;5038631;28;20427;-79
2024/01/05 09:58:55;;;;;;;0.55;0.40;;;;;;;;;;5044837;28;20032;-78
2024/01/05 10:01:28;;;;;;;0.95;0.50;;;;;;;;;;5040899;28;20029;-78
2024/01/05 10:03:58;;;;;;;0.60;0.60;;;;;;;;;;5052629;28;20052;-78
2024/01/05 10:06:25;;;;;;;0.30;0.28;;;;;;;;;;5037427;28;20488;-78
2024/01/05 10:08:52;;;;;;;0.68;0.47;;;;;;;;;;5055317;28;20109;-77
2024/01/05 10:11:29;;;;;;;0.65;0.50;;;;;;;;;;5056055;28;20021;-77
2024/01/05 10:13:57;;;;;;;1.08;0.60;;;;;;;;;;5041356;28;20051;-77
2024/01/05 10:16:27;;;;;;;0.75;0.60;;;;;;;;;;5057820;28;20017;-78
2024/01/05 10:18:53;;;;;;;0.77;0.52;;;;;;;;;;5039592;28;20113;-78
2024/01/05 10:21:23;;;;;;;0.55;0.45;;;;;;;;;;5057549;28;20376;-78
2024/01/05 10:23:49;;;;;;;0.40;0.40;;;;;;;;;;5043370;28;20044;-77
2024/01/05 10:26:19;;;;;;;0.55;0.52;;;;;;;;;;5046886;28;20021;-76
2024/01/05 10:28:48;;;;;;;0.80;0.60;;;;;;;;;;5053190;28;20029;-78
2024/01/05 10:31:15;;;;;;;0.82;0.40;;;;;;;;;;5058888;28;20100;-78
2024/01/05 10:33:55;;;;;;;0.47;0.40;;;;;;;;;;5057108;28;20360;-79
2024/01/05 10:36:21;;;;;;;0.63;0.47;;;;;;;;;;5048664;28;20045;-79
2024/01/05 10:38:48;;;;;;;1.38;0.70;;;;;;;;;;5046169;28;20033;-76
2024/01/05 10:41:16;;;;;;;0.50;0.40;;;;;;;;;;5043813;28;20377;-78
2024/01/05 10:43:42;;;;;;;0.50;0.50;;;;;;;;;;5043480;28;20025;-78
2024/01/05 10:46:11;;;;;;;0.32;0.30;;;;;;;;;;5036302;28;20037;-78
2024/01/05 10:48:38;;;;;;;0.90;0.57;;;;;;;;;;5041647;28;20031;-78
2024/01/05 10:51:04;;;;;;;0.80;0.50;;;;;;;;;;5036733;28;20056;-78
2024/01/05 10:53:30;;;;;;;0.50;0.50;;;;;;;;;;5049575;28;20082;-78
2024/01/05 10:55:57;;;;;;;1.67;0.70;;;;;;;;;;5054742;28;20025;-78
2024/01/05 10:58:23;;;;;;;0.90;0.60;;;;;;;;;;5053699;28;20021;-78
2024/01/05 11:00:50;;;;;;;0.30;0.22;;;;;;;;;;5056914;28;20098;-77
2024/01/05 11:03:19;;;;;;;0.70;0.43;;;;;;;;;;5035779;28;20026;-78
2024/01/05 11:05:46;;;;;;;0.85;0.50;;;;;;;;;;5031606;28;20025;-82
2024/01/05 11:08:30;;;;;;;0.50;0.50;;;;;;;;;;5034668;28;20022;-78
2024/01/05 11:10:56;;;;;;;0.68;0.55;;;;;;;;;;5037374;28;20052;-78
2024/01/05 11:13:28;;;;;;;0.73;0.40;;;;;;;;;;5053972;28;20084;-78
2024/01/05 11:15:54;;;;;;;0.82;0.65;;;;;;;;;;5036023;28;20396;-78
2024/01/05 11:18:30;;;;;;;0.82;0.40;;;;;;;;;;5039922;28;20095;-79
2024/01/05 11:21:11;;;;;;;0.73;0.60;;;;;;;;;;5036859;28;20021;-77
2024/01/05 11:23:38;;;;;;;0.38;0.38;;;;;;;;;;5043617;28;20033;-77
2024/01/05 11:26:04;;;;;;;0.57;0.57;;;;;;;;;;5034645;28;20627;-78
2024/01/05 11:28:35;;;;;;;0.55;0.40;;;;;;;;;;5039092;28;20139;-79
2024/01/05 11:31:01;;;;;;;0.75;0.68;;;;;;;;;;5054610;28;20058;-78
2024/01/05 11:33:44;;;;;;;0.40;0.25;;;;;;;;;;5047996;28;20063;-78
2024/01/05 11:36:12;;;;;;;0.30;0.30;;;;;;;;;;5037700;28;20341;-78
2024/01/05 11:38:43;;;;;;;0.35;0.35;;;;;;;;;;5054387;28;20174;-78
2024/01/05 11:41:18;;;;;;;0.40;0.40;;;;;;;;;;5055912;28;20025;-77
2024/01/05 11:43:45;;;;;;;0.50;0.43;;;;;;;;;;5040837;28;20036;-78
2024/01/05 11:46:11;;;;;;;0.73;0.60;;;;;;;;;;5050383;28;20287;-77
2024/01/05 11:48:37;;;;;;;0.60;0.40;;;;;;;;;;5051011;28;20424;-79
2024/01/05 11:51:03;;;;;;;0.57;0.30;;;;;;;;;;5043234;28;20025;-78
2024/01/05 11:53:30;;;;;;;1.00;0.60;;;;;;;;;;5035801;28;20037;-78
2024/01/05 11:55:57;;;;;;;1.35;0.52;;;;;;;;;;5035966;28;20053;-77
2024/01/05 11:58:36;;;;;;;2.60;0.73;;;;;;;;;;5035615;28;20056;-77
2024/01/05 12:01:03;;;;;;;1.20;0.65;;;;;;;;;;5026929;28;20028;-77
2024/01/05 12:03:33;;;;;;;1.35;0.80;;;;;;;;;;5028625;28;20499;-78
2024/01/05 12:06:01;;;;;;;1.85;1.00;;;;;;;;;;5034885;28;20770;-77
2024/01/05 12:08:27;;;;;;;1.58;0.82;;;;;;;;;;5037830;28;20033;-77
2024/01/05 12:10:55;;;;;;;1.48;0.70;;;;;;;;;;5040308;28;20018;-78
2024/01/05 12:13:26;;;;;;;1.63;0.90;;;;;;;;;;5045422;28;20022;-78
2024/01/05 12:15:55;;;;;;;1.50;0.80;;;;;;;;;;5038724;28;20045;-78
2024/01/05 12:18:29;;;;;;;0.50;0.50;;;;;;;;;;5042157;28;20316;-78
2024/01/05 12:20:55;;;;;;;1.35;1.02;;;;;;;;;;5042345;28;20021;-77
2024/01/05 12:23:22;;;;;;;1.38;0.90;;;;;;;;;;5042564;28;20096;-78
2024/01/05 12:26:09;;;;;;;3.15;1.42;;;;;;;;;;5047451;28;20064;-76
2024/01/05 12:28:36;;;;;;;3.53;1.38;;;;;;;;;;5041898;28;20030;-77
2024/01/05 12:31:04;;;;;;;3.10;1.50;;;;;;;;;;5043470;28;20029;-77
2024/01/05 12:33:30;;;;;;;1.95;1.20;;;;;;;;;;5043566;28;20048;-77
2024/01/05 12:35:57;;;;;;;4.45;1.40;;;;;;;;;;5041416;28;20443;-77
2024/01/05 12:38:26;;;;;;;2.33;0.90;;;;;;;;;;5046130;28;20100;-76
2024/01/05 12:40:53;;;;;;;2.20;1.20;;;;;;;;;;5054344;28;20021;-78
2024/01/05 12:43:19;;;;;;;2.08;1.15;;;;;;;;;;5043011;28;20025;-78
2024/01/05 12:45:49;;;;;;;1.67;0.95;;;;;;;;;;5038305;28;20093;-76
2024/01/05 12:48:15;;;;;;;1.42;0.90;;;;;;;;;;5033008;28;20022;-76
2024/01/05 12:50:42;;;;;;;1.75;1.00;;;;;;;;;;5042788;28;20052;-77
2024/01/05 12:53:21;;;;;;;0.98;0.73;;;;;;;;;;5052491;28;20048;-77
2024/01/05 12:55:47;;;;;;;1.80;1.00;;;;;;;;;;5046804;28;20025;-75
2024/01/05 12:58:14;;;;;;;0.52;0.50;;;;;;;;;;5039259;28;20039;-76
2024/01/05 13:00:44;;;;;;;1.45;0.85;;;;;;;;;;5045574;28;20025;-75
2024/01/05 13:03:14;;;;;;;1.45;0.73;;;;;;;;;;5047719;28;20021;-76
2024/01/05 13:05:40;;;;;;;1.10;0.70;;;;;;;;;;5046492;28;20021;-76
2024/01/05 13:08:06;;;;;;;1.00;0.65;;;;;;;;;;5046813;28;20094;-75
2024/01/05 13:10:33;;;;;;;0.60;0.50;;;;;;;;;;5048824;28;20105;-77
2024/01/05 13:12:59;;;;;;;0.55;0.40;;;;;;;;;;5056553;28;20491;-76
2024/01/05 13:15:25;;;;;;;0.35;0.30;;;;;;;;;;5052363;28;20045;-75
2024/01/05 13:17:51;;;;;;;0.63;0.50;;;;;;;;;;5060694;28;20029;-75
2024/01/05 13:20:24;;;;;;;0.85;0.40;;;;;;;;;;5052136;28;20033;-76
2024/01/05 13:22:50;;;;;;;;;;;;;;;;;;5051239;28;20026;-76
2024/01/05 13:25:16;;;;;;;0.30;0.30;;;;;;;;;;5049684;28;19909;-75
2024/01/05 13:27:42;;;;;;;0.35;0.30;;;;;;;;;;5051851;28;20045;-75
2024/01/05 13:30:15;;;;;;;0.40;0.30;;;;;;;;;;5048547;28;20033;-75
2024/01/05 13:32:44;;;;;;;0.32;0.32;;;;;;;;;;5046953;28;20028;-76
2024/01/05 13:35:13;;;;;;;0.20;0.20;;;;;;;;;;5047919;28;20021;-75
2024/01/05 13:37:39;;;;;;;0.40;0.40;;;;;;;;;;5051821;28;20047;-75
2024/01/05 13:40:06;;;;;;;0.55;0.50;;;;;;;;;;5051629;28;20032;-74
2024/01/05 13:42:33;;;;;;;0.60;0.50;;;;;;;;;;5048255;28;20021;-74
2024/01/05 13:45:04;;;;;;;1.10;0.45;;;;;;;;;;5053820;28;20030;-75
2024/01/05 13:47:31;;;;;;;0.40;0.40;;;;;;;;;;5055188;28;20093;-75
2024/01/05 13:49:57;;;;;;;0.95;0.68;;;;;;;;;;5052294;28;20034;-75
2024/01/05 13:52:23;;;;;;;2.55;0.65;;;;;;;;;;5050638;28;20136;-75
2024/01/05 13:54:49;;;;;;;1.42;0.63;;;;;;;;;;5053834;28;20029;-75
2024/01/05 13:57:16;;;;;;;1.60;1.00;;;;;;;;;;5052789;28;20029;-75
2024/01/05 14:00:06;;;;;;;1.08;0.80;;;;;;;;;;5057218;28;20810;-77
2024/01/05 14:02:31;;;;;;;1.33;0.77;;;;;;;;;;5052899;28;20071;-76
2024/01/05 14:04:59;;;;;;;1.85;1.00;;;;;;;;;;5034369;28;20030;-76
2024/01/05 14:07:25;;;;;;;1.63;0.90;;;;;;;;;;5034949;28;20072;-75
2024/01/05 14:09:51;;;;;;;1.33;0.80;;;;;;;;;;5029486;28;20049;-77
2024/01/05 14:12:17;;;;;;;0.93;0.80;;;;;;;;;;5037264;28;20022;-76
2024/01/05 14:14:43;;;;;;;2.15;1.10;;;;;;;;;;5053171;28;20030;-77
2024/01/05 14:17:09;;;;;;;1.15;0.80;;;;;;;;;;5043625;28;20025;-76
2024/01/05 14:19:35;;;;;;;2.08;1.05;;;;;;;;;;5030687;28;20029;-75
2024/01/05 14:22:01;;;;;;;1.75;1.10;;;;;;;;;;5043163;28;20049;-76
2024/01/05 14:24:28;;;;;;;2.00;1.30;;;;;;;;;;5056001;28;20052;-76
2024/01/05 14:26:54;;;;;;;1.38;0.90;;;;;;;;;;5041165;28;20049;-77
2024/01/05 14:29:21;;;;;;;1.50;0.90;;;;;;;;;;5046190;28;20088;-77
2024/01/05 14:31:47;;;;;;;1.40;0.80;;;;;;;;;;5040046;28;20189;-77
2024/01/05 14:34:13;;;;;;;1.63;0.90;;;;;;;;;;5037719;28;20025;-77
2024/01/05 14:36:40;;;;;;;1.27;0.77;;;;;;;;;;5039472;28;20025;-76
2024/01/05 14:39:06;;;;;;;2.38;0.98;;;;;;;;;;5036130;28;20074;-77
2024/01/05 14:41:33;;;;;;;3.28;1.30;;;;;;;;;;5042821;28;20391;-76